createdAt,value
2018-11-26T00:00:21.133Z,39.13
2018-11-26T00:02:51.680Z,38.90
2018-11-26T00:05:20.617Z,37.63
2018-11-26T00:08:07.985Z,36.27
2018-11-26T00:10:48.622Z,40.83
2018-11-26T00:13:17.291Z,38.07
2018-11-26T00:15:45.923Z,37.27
2018-11-26T00:18:14.556Z,37.30
2018-11-26T00:20:43.424Z,38.93
2018-11-26T00:23:12.064Z,39.83
2018-11-26T00:25:40.676Z,38.53
2018-11-26T00:28:09.511Z,38.33
2018-11-26T00:30:38.180Z,36.77
2018-11-26T00:33:07.735Z,39.35
2018-11-26T00:35:37.873Z,36.40
2018-11-26T00:38:06.503Z,39.23
2018-11-26T00:40:35.144Z,40.30
2018-11-26T00:43:04.086Z,40.03
2018-11-26T00:45:32.718Z,37.50
2018-11-26T00:48:01.332Z,39.33
2018-11-26T00:50:29.984Z,40.37
2018-11-26T00:52:58.616Z,42.73
2018-11-26T00:55:27.236Z,40.03
2018-11-26T00:57:55.860Z,44.17
2018-11-26T01:00:24.471Z,41.07
2018-11-26T01:02:53.246Z,43.43
2018-11-26T01:05:34.928Z,41.97
2018-11-26T01:08:03.587Z,45.47
2018-11-26T01:10:32.256Z,43.13
2018-11-26T01:13:00.892Z,43.83
2018-11-26T01:15:29.540Z,41.63
2018-11-26T01:17:58.188Z,39.23
2018-11-26T01:20:26.792Z,41.30
2018-11-26T01:22:55.444Z,41.40
2018-11-26T01:25:24.057Z,41.23
2018-11-26T01:27:52.680Z,37.97
2018-11-26T01:30:21.297Z,37.77
2018-11-26T01:32:49.949Z,39.50
2018-11-26T01:35:18.600Z,38.43
2018-11-26T01:37:47.222Z,41.60
2018-11-26T01:40:29.269Z,40.80
2018-11-26T01:42:57.917Z,41.50
2018-11-26T01:45:26.599Z,43.30
2018-11-26T01:47:55.176Z,43.63
2018-11-26T01:50:24.064Z,44.57
2018-11-26T01:52:52.725Z,43.37
2018-11-26T01:55:21.395Z,44.33
2018-11-26T01:57:50.367Z,45.67
2018-11-26T02:00:21.269Z,41.17
2018-11-26T02:02:49.954Z,45.10
2018-11-26T02:05:18.626Z,40.37
2018-11-26T02:07:47.198Z,43.17
2018-11-26T02:10:17.195Z,44.90
2018-11-26T02:12:45.800Z,46.60
2018-11-26T02:15:24.776Z,46.97
2018-11-26T02:17:53.417Z,45.07
2018-11-26T02:20:22.028Z,46.50
2018-11-26T02:22:50.664Z,46.57
2018-11-26T02:25:19.541Z,46.90
2018-11-26T02:27:48.149Z,47.10
2018-11-26T02:30:16.886Z,47.07
2018-11-26T02:32:45.569Z,46.67
2018-11-26T02:35:14.143Z,45.13
2018-11-26T02:37:43.419Z,45.33
2018-11-26T02:40:16.434Z,46.57
2018-11-26T02:42:45.064Z,45.43
2018-11-26T02:45:13.677Z,44.23
2018-11-26T02:47:42.297Z,43.73
2018-11-26T02:50:11.852Z,43.53
2018-11-26T02:52:41.917Z,44.53
2018-11-26T02:55:10.521Z,43.50
2018-11-26T02:57:39.262Z,42.00
2018-11-26T03:00:09.260Z,42.53
2018-11-26T03:02:37.877Z,42.77
2018-11-26T03:05:08.749Z,39.20
2018-11-26T03:07:37.340Z,41.07
2018-11-26T03:10:07.386Z,41.40
2018-11-26T03:12:36.194Z,41.63
2018-11-26T03:15:07.577Z,40.43
2018-11-26T03:17:36.197Z,38.00
2018-11-26T03:20:07.196Z,38.90
2018-11-26T03:22:36.995Z,36.07
2018-11-26T03:25:07.048Z,36.23
2018-11-26T03:27:35.663Z,34.93
2018-11-26T03:30:07.956Z,37.63
2018-11-26T03:32:36.756Z,36.13
2018-11-26T03:35:06.883Z,34.23
2018-11-26T03:37:35.512Z,35.50
2018-11-26T03:40:07.540Z,36.77
2018-11-26T03:42:36.153Z,36.40
2018-11-26T03:45:06.881Z,37.77
2018-11-26T03:47:35.477Z,35.40
2018-11-26T03:50:04.176Z,38.20
2018-11-26T03:52:32.793Z,37.07
2018-11-26T03:55:01.396Z,37.80
2018-11-26T03:57:30.044Z,36.03
2018-11-26T03:59:58.665Z,36.53
2018-11-26T04:02:27.408Z,35.77
2018-11-26T04:04:56.035Z,35.77
2018-11-26T04:07:24.651Z,35.07
2018-11-26T04:09:53.332Z,34.33
2018-11-26T04:12:21.885Z,33.47
2018-11-26T04:14:50.537Z,34.08
2018-11-26T04:17:19.138Z,34.00
2018-11-26T04:19:47.783Z,34.43
2018-11-26T04:22:16.636Z,33.83
2018-11-26T04:24:45.245Z,33.83
2018-11-26T04:27:14.939Z,36.93
2018-11-26T04:29:43.931Z,34.83
2018-11-26T04:32:13.452Z,34.55
2018-11-26T04:34:42.085Z,34.30
2018-11-26T04:37:10.840Z,35.63
2018-11-26T04:39:39.448Z,35.73
2018-11-26T04:42:08.204Z,38.87
2018-11-26T04:44:36.815Z,37.00
2018-11-26T04:47:05.417Z,38.20
2018-11-26T04:49:34.285Z,36.20
2018-11-26T04:52:02.900Z,35.27
2018-11-26T04:54:31.506Z,36.60
2018-11-26T04:57:00.145Z,34.37
2018-11-26T04:59:29.104Z,34.00
2018-11-26T05:01:57.692Z,35.23
2018-11-26T05:04:26.282Z,31.23
2018-11-26T05:06:54.896Z,31.40
2018-11-26T05:09:25.312Z,30.00
2018-11-26T05:11:53.933Z,31.03
2018-11-26T05:14:22.677Z,27.97
2018-11-26T05:16:51.293Z,30.00
2018-11-26T05:19:20.037Z,28.47
2018-11-26T05:21:48.721Z,28.17
2018-11-26T05:24:17.387Z,29.43
2018-11-26T05:26:46.084Z,30.70
2018-11-26T05:29:14.707Z,29.80
2018-11-26T05:31:43.393Z,30.63
2018-11-26T05:34:11.992Z,30.90
2018-11-26T05:36:40.624Z,31.40
2018-11-26T05:39:09.341Z,30.20
2018-11-26T05:41:37.948Z,29.90
2018-11-26T05:44:06.560Z,31.80
2018-11-26T05:46:35.192Z,31.53
2018-11-26T05:49:03.801Z,31.03
2018-11-26T05:51:32.442Z,31.07
2018-11-26T05:54:03.167Z,29.97
2018-11-26T05:56:31.870Z,29.50
2018-11-26T05:59:00.468Z,29.30
2018-11-26T06:01:29.078Z,29.80
2018-11-26T06:03:57.703Z,30.80
2018-11-26T06:06:26.302Z,27.80
2018-11-26T06:08:54.920Z,30.50
2018-11-26T06:11:23.520Z,30.37
2018-11-26T06:13:52.127Z,28.50
2018-11-26T06:16:20.751Z,28.70
2018-11-26T06:18:49.340Z,28.90
2018-11-26T06:21:17.943Z,27.23
2018-11-26T06:23:46.553Z,27.93
2018-11-26T06:26:15.536Z,27.00
2018-11-26T06:28:44.164Z,27.47
2018-11-26T06:31:12.769Z,28.23
2018-11-26T06:33:41.537Z,28.50
2018-11-26T06:36:10.172Z,29.13
2018-11-26T06:38:38.793Z,27.50
2018-11-26T06:41:07.420Z,25.43
2018-11-26T06:43:36.042Z,27.73
2018-11-26T06:46:04.868Z,27.50
2018-11-26T06:48:33.883Z,26.30
2018-11-26T06:51:02.693Z,27.57
2018-11-26T06:53:31.297Z,31.17
2018-11-26T06:55:59.922Z,26.33
2018-11-26T06:58:28.566Z,26.93
2018-11-26T07:00:57.233Z,26.07
2018-11-26T07:03:25.828Z,23.80
2018-11-26T07:05:54.457Z,25.10
2018-11-26T07:08:23.073Z,23.97
2018-11-26T07:10:51.656Z,23.80
2018-11-26T07:13:20.275Z,23.20
2018-11-26T07:15:48.904Z,25.50
2018-11-26T07:18:17.544Z,26.80
2018-11-26T07:20:46.221Z,28.57
2018-11-26T07:23:14.836Z,27.67
2018-11-26T07:25:43.487Z,27.87
2018-11-26T07:28:12.073Z,26.67
2018-11-26T07:30:40.684Z,28.03
2018-11-26T07:33:09.312Z,26.20
2018-11-26T07:35:37.920Z,26.93
2018-11-26T07:38:06.520Z,25.90
2018-11-26T07:40:35.312Z,25.90
2018-11-26T07:43:13.580Z,27.27
2018-11-26T07:45:42.214Z,28.37
2018-11-26T07:48:11.732Z,26.83
2018-11-26T07:50:40.349Z,27.83
2018-11-26T07:53:09.749Z,28.07
2018-11-26T07:55:40.995Z,25.20
2018-11-26T07:58:09.656Z,25.10
2018-11-26T08:00:38.594Z,26.57
2018-11-26T08:03:07.315Z,27.10
2018-11-26T08:05:37.799Z,25.00
2018-11-26T08:08:06.620Z,23.93
2018-11-26T08:10:35.234Z,26.30
2018-11-26T08:13:03.857Z,24.97
2018-11-26T08:15:32.480Z,24.40
2018-11-26T08:18:01.372Z,25.30
2018-11-26T08:20:30.003Z,28.00
2018-11-26T08:22:58.592Z,25.43
2018-11-26T08:25:27.601Z,23.70
2018-11-26T08:27:56.429Z,25.23
2018-11-26T08:30:26.137Z,24.43
2018-11-26T08:32:58.503Z,23.60
2018-11-26T08:35:27.780Z,23.60
2018-11-26T08:38:01.838Z,21.53
2018-11-26T08:40:35.637Z,23.77
2018-11-26T08:43:11.668Z,22.83
2018-11-26T08:45:46.981Z,22.83
2018-11-26T08:48:15.712Z,21.27
2018-11-26T08:50:44.540Z,21.80
2018-11-26T08:53:13.405Z,20.23
2018-11-26T08:55:42.017Z,21.13
2018-11-26T08:58:10.630Z,16.90
2018-11-26T09:00:39.253Z,16.10
2018-11-26T09:03:13.585Z,15.97
2018-11-26T09:05:46.488Z,16.43
2018-11-26T09:08:15.113Z,16.47
2018-11-26T09:10:43.757Z,16.17
2018-11-26T09:13:12.448Z,15.73
2018-11-26T09:15:41.176Z,16.70
2018-11-26T09:18:09.772Z,17.53
2018-11-26T09:20:38.496Z,17.07
2018-11-26T09:23:07.084Z,16.57
2018-11-26T09:25:35.698Z,17.37
2018-11-26T09:28:04.328Z,18.07
2018-11-26T09:30:32.970Z,16.48
2018-11-26T09:33:01.563Z,16.60
2018-11-26T09:35:30.212Z,16.83
2018-11-26T09:37:58.832Z,17.83
2018-11-26T09:40:27.472Z,16.07
2018-11-26T09:42:56.332Z,18.17
2018-11-26T09:45:24.937Z,16.27
2018-11-26T09:47:53.581Z,16.97
2018-11-26T09:50:22.904Z,18.40
2018-11-26T09:52:51.521Z,17.07
2018-11-26T09:55:20.140Z,17.93
2018-11-26T09:57:48.821Z,17.57
2018-11-26T10:00:18.824Z,17.77
2018-11-26T10:02:49.581Z,18.57
2018-11-26T10:05:21.152Z,18.10
2018-11-26T10:07:49.776Z,19.40
2018-11-26T10:10:19.219Z,19.10
2018-11-26T10:12:47.879Z,18.33
2018-11-26T10:15:22.495Z,19.90
2018-11-26T10:17:51.141Z,20.10
2018-11-26T10:20:19.820Z,19.97
2018-11-26T10:22:50.456Z,20.60
2018-11-26T10:25:19.974Z,19.77
2018-11-26T10:27:52.233Z,20.50
2018-11-26T10:30:23.354Z,21.33
2018-11-26T10:32:51.962Z,19.87
2018-11-26T10:35:20.932Z,20.40
2018-11-26T10:37:49.593Z,20.57
2018-11-26T10:40:22.088Z,19.67
2018-11-26T10:42:50.866Z,21.57
2018-11-26T10:45:20.480Z,18.80
2018-11-26T10:47:49.771Z,20.20
2018-11-26T10:50:20.713Z,19.47
2018-11-26T10:52:56.741Z,20.50
2018-11-26T10:55:27.090Z,20.10
2018-11-26T10:57:55.652Z,19.53
2018-11-26T11:00:30.706Z,21.73
2018-11-26T11:02:59.308Z,22.43
2018-11-26T11:05:28.099Z,22.13
2018-11-26T11:07:56.727Z,24.00
2018-11-26T11:10:28.548Z,22.93
2018-11-26T11:12:57.220Z,23.57
2018-11-26T11:15:25.842Z,23.73
2018-11-26T11:17:55.441Z,25.00
2018-11-26T11:20:25.951Z,26.17
2018-11-26T11:22:54.599Z,25.93
2018-11-26T11:25:23.409Z,23.13
2018-11-26T11:27:52.791Z,26.20
2018-11-26T11:30:24.782Z,25.60
2018-11-26T11:32:53.406Z,26.57
2018-11-26T11:35:22.161Z,24.53
2018-11-26T11:37:51.473Z,26.17
2018-11-26T11:40:28.590Z,26.55
2018-11-26T11:42:58.040Z,28.17
2018-11-26T11:45:27.357Z,26.93
2018-11-26T11:47:56.045Z,27.53
2018-11-26T11:50:24.717Z,29.30
2018-11-26T11:52:53.661Z,29.03
2018-11-26T11:55:24.437Z,28.90
2018-11-26T11:57:53.109Z,28.57
2018-11-26T12:00:29.149Z,29.73
2018-11-26T12:02:57.943Z,28.10
2018-11-26T12:05:26.642Z,26.80
2018-11-26T12:07:55.244Z,28.50
2018-11-26T12:10:23.853Z,30.17
2018-11-26T12:12:52.468Z,30.40
2018-11-26T12:15:21.228Z,27.95
2018-11-26T12:17:49.977Z,28.47
2018-11-26T12:20:18.605Z,28.63
2018-11-26T12:22:47.242Z,29.23
2018-11-26T12:25:16.934Z,29.17
2018-11-26T12:27:45.550Z,29.87
2018-11-26T12:30:21.986Z,29.07
2018-11-26T12:32:51.521Z,30.27
2018-11-26T12:35:20.138Z,30.40
2018-11-26T12:37:48.858Z,29.27
2018-11-26T12:40:21.390Z,28.83
2018-11-26T12:42:51.194Z,29.13
2018-11-26T12:45:21.889Z,28.63
2018-11-26T12:47:50.917Z,30.57
2018-11-26T12:50:19.587Z,28.30
2018-11-26T12:52:51.283Z,28.67
2018-11-26T12:55:20.914Z,29.40
2018-11-26T12:57:50.074Z,31.47
2018-11-26T13:00:20.704Z,29.27
2018-11-26T13:02:52.970Z,28.20
2018-11-26T13:05:22.013Z,27.50
2018-11-26T13:07:50.661Z,27.33
2018-11-26T13:10:20.389Z,29.63
2018-11-26T13:12:49.610Z,27.57
2018-11-26T13:15:19.350Z,28.20
2018-11-26T13:17:48.040Z,27.43
2018-11-26T13:20:17.814Z,27.30
2018-11-26T13:22:46.548Z,29.27
2018-11-26T13:25:17.479Z,26.37
2018-11-26T13:27:47.426Z,28.27
2018-11-26T13:30:19.963Z,29.77
2018-11-26T13:32:49.821Z,27.53
2018-11-26T13:35:18.884Z,28.43
2018-11-26T13:37:48.784Z,26.87
2018-11-26T13:40:18.142Z,27.43
2018-11-26T13:42:47.088Z,26.70
2018-11-26T13:45:19.003Z,26.87
2018-11-26T13:47:47.606Z,26.77
2018-11-26T13:50:23.062Z,26.47
2018-11-26T13:52:51.290Z,25.13
2018-11-26T13:55:19.897Z,26.40
2018-11-26T13:57:48.637Z,26.10
2018-11-26T14:00:17.657Z,27.30
2018-11-26T14:02:46.362Z,27.10
2018-11-26T14:05:16.169Z,25.87
2018-11-26T14:07:45.178Z,27.37
2018-11-26T14:10:19.693Z,25.80
2018-11-26T14:12:53.034Z,26.53
2018-11-26T14:15:21.655Z,26.43
2018-11-26T14:17:50.269Z,28.60
2018-11-26T14:20:18.882Z,28.13
2018-11-26T14:22:47.669Z,26.47
2018-11-26T14:25:17.373Z,25.67
2018-11-26T14:27:46.537Z,26.13
2018-11-26T14:30:19.456Z,26.50
2018-11-26T14:32:47.990Z,26.47
2018-11-26T14:35:17.267Z,25.10
2018-11-26T14:37:47.534Z,26.47
2018-11-26T14:40:20.715Z,27.47
2018-11-26T14:42:49.323Z,25.30
2018-11-26T14:45:17.915Z,25.77
2018-11-26T14:47:46.629Z,25.77
2018-11-26T14:50:16.110Z,25.63
2018-11-26T14:52:45.962Z,27.23
2018-11-26T14:55:17.837Z,27.27
2018-11-26T14:57:46.445Z,26.00
2018-11-26T15:00:16.749Z,26.50
2018-11-26T15:02:45.578Z,26.83
2018-11-26T15:05:14.402Z,28.17
2018-11-26T15:07:43.269Z,27.20
2018-11-26T15:10:13.293Z,25.03
2018-11-26T15:12:42.637Z,25.97
2018-11-26T15:15:13.454Z,28.20
2018-11-26T15:17:42.848Z,26.00
2018-11-26T15:20:12.861Z,27.40
2018-11-26T15:22:41.445Z,26.07
2018-11-26T15:25:11.435Z,27.80
2018-11-26T15:27:40.419Z,26.43
2018-11-26T15:30:10.638Z,25.90
2018-11-26T15:32:39.385Z,26.03
2018-11-26T15:35:11.586Z,25.93
2018-11-26T15:37:40.241Z,25.37
2018-11-26T15:40:09.846Z,26.80
2018-11-26T15:42:38.517Z,24.47
2018-11-26T15:45:15.106Z,26.33
2018-11-26T15:47:44.038Z,24.37
2018-11-26T15:50:12.981Z,25.90
2018-11-26T15:52:41.864Z,23.90
2018-11-26T15:55:11.923Z,23.80
2018-11-26T15:57:40.837Z,23.80
2018-11-26T16:00:12.170Z,24.60
2018-11-26T16:02:40.762Z,23.20
2018-11-26T16:05:10.979Z,25.70
2018-11-26T16:07:40.593Z,22.97
2018-11-26T16:10:10.755Z,22.73
2018-11-26T16:12:39.618Z,23.83
2018-11-26T16:15:25.329Z,22.70
2018-11-26T16:17:55.074Z,22.37
2018-11-26T16:20:25.066Z,23.07
2018-11-26T16:22:53.752Z,22.60
2018-11-26T16:25:23.269Z,23.63
2018-11-26T16:27:51.885Z,23.07
2018-11-26T16:30:20.487Z,22.27
2018-11-26T16:32:52.278Z,22.90
2018-11-26T16:35:23.205Z,20.73
2018-11-26T16:37:52.161Z,22.60
2018-11-26T16:40:20.770Z,22.10
2018-11-26T16:42:49.439Z,20.03
2018-11-26T16:45:19.853Z,21.77
2018-11-26T16:47:49.721Z,21.80
2018-11-26T16:50:19.649Z,20.50
2018-11-26T16:52:48.275Z,20.63
2018-11-26T16:55:17.623Z,19.80
2018-11-26T16:57:46.580Z,20.90
2018-11-26T17:00:18.209Z,20.43
2018-11-26T17:02:48.057Z,19.57
2018-11-26T17:05:22.521Z,21.27
2018-11-26T17:07:50.973Z,20.00
2018-11-26T17:10:19.742Z,19.67
2018-11-26T17:12:48.446Z,18.90
2018-11-26T17:15:17.839Z,19.33
2018-11-26T17:17:46.650Z,19.07
2018-11-26T17:20:16.293Z,19.23
2018-11-26T17:22:45.110Z,18.13
2018-11-26T17:25:14.817Z,19.03
2018-11-26T17:27:43.874Z,19.37
2018-11-26T17:30:21.761Z,18.30
2018-11-26T17:32:51.812Z,19.10
2018-11-26T17:35:20.414Z,17.07
2018-11-26T17:37:49.089Z,18.57
2018-11-26T17:40:20.598Z,18.03
2018-11-26T17:42:49.430Z,16.50
2018-11-26T17:45:18.585Z,16.43
2018-11-26T17:47:49.459Z,18.13
2018-11-26T17:50:20.051Z,16.70
2018-11-26T17:52:49.030Z,16.03
2018-11-26T17:55:17.881Z,16.87
2018-11-26T17:57:46.582Z,16.77
2018-11-26T18:00:18.252Z,14.87
2018-11-26T18:02:47.422Z,16.57
2018-11-26T18:05:21.314Z,15.93
2018-11-26T18:07:52.984Z,13.83
2018-11-26T18:10:21.693Z,13.77
2018-11-26T18:12:50.372Z,14.10
2018-11-26T18:15:18.994Z,13.47
2018-11-26T18:17:47.776Z,13.43
2018-11-26T18:20:18.567Z,12.73
2018-11-26T18:22:48.426Z,12.63
2018-11-26T18:25:17.289Z,12.63
2018-11-26T18:27:47.863Z,12.53
2018-11-26T18:30:18.267Z,14.60
2018-11-26T18:32:46.984Z,12.20
2018-11-26T18:35:16.122Z,13.60
2018-11-26T18:37:44.751Z,13.47
2018-11-26T18:40:16.157Z,15.27
2018-11-26T18:42:44.805Z,15.03
2018-11-26T18:45:15.490Z,13.53
2018-11-26T18:47:44.648Z,13.30
2018-11-26T18:50:16.577Z,13.47
2018-11-26T18:52:45.681Z,12.63
2018-11-26T18:55:14.298Z,14.43
2018-11-26T18:57:43.098Z,13.47
2018-11-26T19:00:16.225Z,14.70
2018-11-26T19:02:44.886Z,12.77
2018-11-26T19:05:14.493Z,13.50
2018-11-26T19:07:43.085Z,15.20
2018-11-26T19:10:14.231Z,15.60
2018-11-26T19:12:43.626Z,14.55
2018-11-26T19:15:19.162Z,16.07
2018-11-26T19:17:48.425Z,16.17
2018-11-26T19:20:17.110Z,15.47
2018-11-26T19:22:45.749Z,16.67
2018-11-26T19:25:15.838Z,15.63
2018-11-26T19:27:44.726Z,15.35
2018-11-26T19:30:14.665Z,15.43
2018-11-26T19:32:44.298Z,15.03
2018-11-26T19:35:14.157Z,17.30
2018-11-26T19:37:42.922Z,17.53
2018-11-26T19:40:15.867Z,17.03
2018-11-26T19:42:45.554Z,16.13
2018-11-26T19:45:17.567Z,15.57
2018-11-26T19:47:46.546Z,16.67
2018-11-26T19:50:16.231Z,15.73
2018-11-26T19:52:45.894Z,15.83
2018-11-26T19:55:16.810Z,15.77
2018-11-26T19:57:45.567Z,15.50
2018-11-26T20:00:15.425Z,14.80
2018-11-26T20:02:45.625Z,17.07
2018-11-26T20:05:17.573Z,16.40
2018-11-26T20:07:46.523Z,16.00
2018-11-26T20:10:15.442Z,16.10
2018-11-26T20:12:44.484Z,15.77
2018-11-26T20:15:14.557Z,15.77
2018-11-26T20:17:43.515Z,16.87
2018-11-26T20:20:12.134Z,17.07
2018-11-26T20:22:40.834Z,16.10
2018-11-26T20:25:13.002Z,15.50
2018-11-26T20:27:41.878Z,16.63
2018-11-26T20:33:13.350Z,16.47
2018-11-26T20:35:42.410Z,15.87
2018-11-26T20:38:12.752Z,15.67
2018-11-26T20:40:41.778Z,14.83
2018-11-26T20:43:11.260Z,14.20
2018-11-26T20:45:41.431Z,15.23
2018-11-26T20:48:10.629Z,13.60
2018-11-26T20:50:41.662Z,14.50
2018-11-26T20:53:10.606Z,14.60
2018-11-26T20:55:39.273Z,13.63
2018-11-26T20:58:08.127Z,14.93
2018-11-26T21:00:36.758Z,13.90
2018-11-26T21:03:09.031Z,13.10
2018-11-26T21:05:38.046Z,13.30
2018-11-26T21:08:06.704Z,15.68
2018-11-26T21:10:35.510Z,13.93
2018-11-26T21:13:04.214Z,14.50
2018-11-26T21:15:35.553Z,14.77
2018-11-26T21:18:07.482Z,14.67
2018-11-26T21:20:40.567Z,15.07
2018-11-26T21:23:11.749Z,14.17
2018-11-26T21:25:41.357Z,13.48
2018-11-26T21:28:10.051Z,13.90
2018-11-26T21:30:38.933Z,14.00
2018-11-26T21:33:07.985Z,15.37
2018-11-26T21:35:36.884Z,15.73
2018-11-26T21:38:06.657Z,13.97
2018-11-26T21:40:35.278Z,14.80
2018-11-26T21:43:04.443Z,15.33
2018-11-26T21:45:37.934Z,15.30
2018-11-26T21:48:06.561Z,14.87
2018-11-26T21:50:35.459Z,14.10
2018-11-26T21:53:04.943Z,15.10
2018-11-26T21:55:34.474Z,14.20
2018-11-26T21:58:03.137Z,14.83
2018-11-26T22:00:32.113Z,13.27
2018-11-26T22:03:06.776Z,14.63
2018-11-26T22:05:35.541Z,13.80
2018-11-26T22:08:04.723Z,15.43
2018-11-26T22:10:33.529Z,14.70
2018-11-26T22:13:02.222Z,14.47
2018-11-26T22:15:30.826Z,14.73
2018-11-26T22:17:59.433Z,15.27
2018-11-26T22:20:29.496Z,13.37
2018-11-26T22:22:58.107Z,13.97
2018-11-26T22:25:27.217Z,13.80
2018-11-26T22:27:55.857Z,15.73
2018-11-26T22:30:30.865Z,14.77
2018-11-26T22:32:59.470Z,14.23
2018-11-26T22:35:28.098Z,13.07
2018-11-26T22:37:56.737Z,13.83
2018-11-26T22:40:26.149Z,14.50
2018-11-26T22:42:54.828Z,15.83
2018-11-26T22:45:24.886Z,15.57
2018-11-26T22:47:55.585Z,14.37
2018-11-26T22:50:24.514Z,13.43
2018-11-26T22:52:53.375Z,15.15
2018-11-26T22:55:22.590Z,14.40
2018-11-26T22:57:50.864Z,14.53
2018-11-26T23:00:27.376Z,13.70
2018-11-26T23:02:59.109Z,14.60
2018-11-26T23:05:28.051Z,14.47
2018-11-26T23:07:56.944Z,13.83
2018-11-26T23:10:25.616Z,14.73
2018-11-26T23:12:54.676Z,13.70
2018-11-26T23:15:23.297Z,13.37
2018-11-26T23:17:52.001Z,13.33
2018-11-26T23:20:21.046Z,12.50
2018-11-26T23:22:50.374Z,13.55
2018-11-26T23:25:19.542Z,12.90
2018-11-26T23:27:48.254Z,12.83
2018-11-26T23:30:17.951Z,12.60
2018-11-26T23:32:47.783Z,12.93
2018-11-26T23:35:16.509Z,13.65
2018-11-26T23:37:45.470Z,13.18
2018-11-26T23:40:14.170Z,11.30
2018-11-26T23:42:42.794Z,11.80
2018-11-26T23:45:13.294Z,12.43
2018-11-26T23:47:41.933Z,12.27
2018-11-26T23:50:11.642Z,12.40
2018-11-26T23:52:40.831Z,12.23
2018-11-26T23:55:13.835Z,12.13
2018-11-26T23:57:42.592Z,12.30
